Time;durP1;ratioP1;P1;durP2;ratioP2;P2;SDS_P1;SDS_P2;PMS_P1;PMS_P2;Temp;Humidity;BMP_temperature;BMP_pressure;BME280_temperature;BME280_humidity;BME280_pressure;Samples;Min_cycle;Max_cycle;Signal;HPM_P1;HPM_P2
2020/12/17 00:00:48;;;;;;;27.27;16.92;;;;;;;;;;4943104;29;20047;-82
2020/12/17 00:03:14;;;;;;;26.08;16.85;;;;;;;;;;4943467;29;20514;-82
2020/12/17 00:05:40;;;;;;;25.58;16.67;;;;;;;;;;4938444;29;20139;-82
2020/12/17 00:08:06;;;;;;;25.73;16.05;;;;;;;;;;4940260;29;20059;-82
2020/12/17 00:10:32;;;;;;;26.95;16.40;;;;;;;;;;4944613;29;20090;-82
2020/12/17 00:12:59;;;;;;;25.45;16.15;;;;;;;;;;4943829;29;20477;-82
2020/12/17 00:15:25;;;;;;;28.85;16.27;;;;;;;;;;4927491;29;20067;-82
2020/12/17 00:17:51;;;;;;;27.60;16.85;;;;;;;;;;4943119;29;20427;-82
2020/12/17 00:20:19;;;;;;;28.77;16.67;;;;;;;;;;4928239;29;20058;-81
2020/12/17 00:22:46;;;;;;;28.05;16.67;;;;;;;;;;4921409;29;20353;-81
2020/12/17 00:25:13;;;;;;;27.70;17.98;;;;;;;;;;4926275;29;20436;-82
2020/12/17 00:27:40;;;;;;;28.70;16.60;;;;;;;;;;4921738;29;20052;-81
2020/12/17 00:30:07;;;;;;;27.27;18.58;;;;;;;;;;4924104;29;20138;-81
2020/12/17 00:32:34;;;;;;;29.15;17.17;;;;;;;;;;4920032;29;20057;-81
2020/12/17 00:35:00;;;;;;;26.73;17.17;;;;;;;;;;4939013;29;20114;-81
2020/12/17 00:37:30;;;;;;;25.58;16.90;;;;;;;;;;4938091;29;20051;-81
2020/12/17 00:39:56;;;;;;;29.15;16.92;;;;;;;;;;4940692;29;20051;-81
2020/12/17 00:42:22;;;;;;;27.10;16.83;;;;;;;;;;4923262;29;20114;-81
2020/12/17 00:44:49;;;;;;;27.55;17.83;;;;;;;;;;4923825;29;20044;-81
2020/12/17 00:47:16;;;;;;;30.65;18.58;;;;;;;;;;4939626;29;20048;-82
2020/12/17 00:49:42;;;;;;;27.52;17.92;;;;;;;;;;4939825;29;20162;-82
2020/12/17 00:52:08;;;;;;;25.27;16.98;;;;;;;;;;4922321;29;20043;-81
2020/12/17 00:54:37;;;;;;;29.80;17.88;;;;;;;;;;4937943;29;20071;-82
2020/12/17 00:57:03;;;;;;;29.38;17.92;;;;;;;;;;4941650;29;20051;-82
2020/12/17 00:59:29;;;;;;;30.80;18.40;;;;;;;;;;4924421;29;20436;-81
2020/12/17 01:01:59;;;;;;;30.08;18.05;;;;;;;;;;4938633;29;20063;-80
2020/12/17 01:04:25;;;;;;;30.23;18.65;;;;;;;;;;4943010;29;20086;-81
2020/12/17 01:07:02;;;;;;;29.33;18.05;;;;;;;;;;4947468;29;20106;-81
2020/12/17 01:09:28;;;;;;;27.20;17.83;;;;;;;;;;4932713;29;20054;-81
2020/12/17 01:11:55;;;;;;;27.48;17.00;;;;;;;;;;4932933;29;20071;-81
2020/12/17 01:14:21;;;;;;;30.02;18.83;;;;;;;;;;4949166;29;20387;-81
2020/12/17 01:16:48;;;;;;;28.92;18.73;;;;;;;;;;4930417;29;20075;-82
2020/12/17 01:19:14;;;;;;;29.95;19.55;;;;;;;;;;4932575;29;20068;-81
2020/12/17 01:21:56;;;;;;;32.63;18.35;;;;;;;;;;4929369;29;20044;-81
2020/12/17 01:24:23;;;;;;;32.72;19.52;;;;;;;;;;4940509;29;20116;-82
2020/12/17 01:26:53;;;;;;;28.08;17.30;;;;;;;;;;4933794;29;20134;-83
2020/12/17 01:29:20;;;;;;;31.70;20.00;;;;;;;;;;4933653;29;20052;-82
2020/12/17 01:31:50;;;;;;;31.73;19.00;;;;;;;;;;4926705;29;20115;-82
2020/12/17 01:34:18;;;;;;;29.80;18.90;;;;;;;;;;4946269;29;20048;-82
2020/12/17 01:36:45;;;;;;;29.65;18.42;;;;;;;;;;4949782;29;20044;-83
2020/12/17 01:39:11;;;;;;;31.80;17.77;;;;;;;;;;4931732;29;20048;-83
2020/12/17 01:41:37;;;;;;;32.05;19.92;;;;;;;;;;4944713;29;20132;-83
2020/12/17 01:44:04;;;;;;;34.92;20.17;;;;;;;;;;4941877;29;20045;-83
2020/12/17 01:46:30;;;;;;;33.20;19.30;;;;;;;;;;4921460;29;20078;-83
2020/12/17 01:48:56;;;;;;;37.00;19.45;;;;;;;;;;4922359;29;20094;-82
2020/12/17 01:51:22;;;;;;;34.00;19.05;;;;;;;;;;4941932;29;20150;-83
2020/12/17 01:53:48;;;;;;;32.00;19.83;;;;;;;;;;4949279;29;20083;-82
2020/12/17 01:56:25;;;;;;;34.75;20.52;;;;;;;;;;4940143;29;21328;-83
2020/12/17 01:59:12;;;;;;;29.17;18.98;;;;;;;;;;4939933;29;20139;-83
2020/12/17 02:01:38;;;;;;;;;;;;;;;;;;4930288;29;20328;-83
2020/12/17 02:04:04;;;;;;;32.87;18.90;;;;;;;;;;4930420;29;19923;-83
2020/12/17 02:06:30;;;;;;;31.42;19.17;;;;;;;;;;4933811;29;20495;-83
2020/12/17 02:08:59;;;;;;;32.17;19.13;;;;;;;;;;4931545;29;20056;-83
2020/12/17 02:11:25;;;;;;;32.75;19.10;;;;;;;;;;4941922;29;20059;-83
2020/12/17 02:13:51;;;;;;;32.42;20.48;;;;;;;;;;4927364;29;20063;-83
2020/12/17 02:16:18;;;;;;;33.05;20.27;;;;;;;;;;4933644;29;20068;-81
2020/12/17 02:18:45;;;;;;;31.30;19.58;;;;;;;;;;4963957;28;20115;-82
2020/12/17 02:21:12;;;;;;;30.77;18.92;;;;;;;;;;4953537;28;20071;-83
2020/12/17 02:23:38;;;;;;;32.53;19.95;;;;;;;;;;4922599;28;20064;-82
2020/12/17 02:26:05;;;;;;;31.73;19.50;;;;;;;;;;4930169;29;20421;-83
2020/12/17 02:28:31;;;;;;;31.42;19.05;;;;;;;;;;4932058;29;20063;-83
2020/12/17 02:30:57;;;;;;;35.10;21.27;;;;;;;;;;4942435;29;20412;-82
2020/12/17 02:33:23;;;;;;;30.02;19.23;;;;;;;;;;4954641;28;20067;-82
2020/12/17 02:35:49;;;;;;;35.78;20.60;;;;;;;;;;4942165;28;20066;-83
2020/12/17 02:38:16;;;;;;;31.40;20.38;;;;;;;;;;4930356;29;20147;-83
2020/12/17 02:40:42;;;;;;;35.30;21.10;;;;;;;;;;4920730;29;20052;-83
2020/12/17 02:43:10;;;;;;;33.53;21.13;;;;;;;;;;4951342;29;20088;-83
2020/12/17 02:45:42;;;;;;;35.13;20.45;;;;;;;;;;4938984;29;20148;-82
2020/12/17 02:48:08;;;;;;;36.08;20.90;;;;;;;;;;4936383;29;20058;-83
2020/12/17 02:50:34;;;;;;;34.25;19.90;;;;;;;;;;4935960;29;20107;-83
2020/12/17 02:53:00;;;;;;;35.63;20.25;;;;;;;;;;4943170;29;20052;-83
2020/12/17 02:55:26;;;;;;;35.47;21.45;;;;;;;;;;4929300;29;20083;-83
2020/12/17 02:57:52;;;;;;;33.60;20.90;;;;;;;;;;4945494;29;20063;-83
2020/12/17 03:00:21;;;;;;;32.58;20.75;;;;;;;;;;4926292;29;20489;-82
2020/12/17 03:02:47;;;;;;;35.17;21.27;;;;;;;;;;4926539;29;20569;-83
2020/12/17 03:05:23;;;;;;;35.63;21.90;;;;;;;;;;4915139;29;20351;-83
2020/12/17 03:07:50;;;;;;;34.40;20.67;;;;;;;;;;4927723;29;20067;-82
2020/12/17 03:10:22;;;;;;;35.47;21.08;;;;;;;;;;4937596;29;20679;-83
2020/12/17 03:12:48;;;;;;;36.45;20.77;;;;;;;;;;4948595;29;20384;-82
2020/12/17 03:15:14;;;;;;;35.30;22.35;;;;;;;;;;4941301;29;20080;-82
2020/12/17 03:17:40;;;;;;;39.83;21.73;;;;;;;;;;4926205;29;20291;-83
2020/12/17 03:20:07;;;;;;;38.35;21.60;;;;;;;;;;4928852;29;20044;-83
2020/12/17 03:22:34;;;;;;;34.10;21.45;;;;;;;;;;4927661;29;20048;-82
2020/12/17 03:25:00;;;;;;;34.78;20.60;;;;;;;;;;4921309;29;20151;-83
2020/12/17 03:27:26;;;;;;;32.83;20.40;;;;;;;;;;4934849;29;20055;-84
2020/12/17 03:29:52;;;;;;;36.33;20.60;;;;;;;;;;4934248;29;20056;-83
2020/12/17 03:32:18;;;;;;;35.55;20.92;;;;;;;;;;4930367;29;20118;-83
2020/12/17 03:34:45;;;;;;;37.25;20.67;;;;;;;;;;4929581;29;20072;-84
2020/12/17 03:37:11;;;;;;;35.05;21.27;;;;;;;;;;4947936;29;20051;-83
2020/12/17 03:39:37;;;;;;;38.47;21.65;;;;;;;;;;4930591;29;20063;-84
2020/12/17 03:42:04;;;;;;;35.80;21.27;;;;;;;;;;4953204;29;20086;-84
2020/12/17 03:44:31;;;;;;;36.75;20.75;;;;;;;;;;4929601;29;20048;-84
2020/12/17 03:46:57;;;;;;;35.22;21.73;;;;;;;;;;4933793;29;20538;-84
2020/12/17 03:49:23;;;;;;;36.67;21.67;;;;;;;;;;4936480;29;20059;-84
2020/12/17 03:51:50;;;;;;;33.15;20.33;;;;;;;;;;4930505;29;20084;-84
2020/12/17 03:54:16;;;;;;;38.63;22.38;;;;;;;;;;4945823;29;20099;-84
2020/12/17 03:56:45;;;;;;;40.75;22.85;;;;;;;;;;4928973;29;20112;-84
2020/12/17 03:59:14;;;;;;;39.85;21.65;;;;;;;;;;4942309;29;20408;-83
2020/12/17 04:01:40;;;;;;;36.10;21.70;;;;;;;;;;4929942;29;20131;-83
2020/12/17 04:04:09;;;;;;;39.50;22.75;;;;;;;;;;4955595;29;20046;-84
2020/12/17 04:06:35;;;;;;;38.35;23.08;;;;;;;;;;4946344;29;20040;-83
2020/12/17 04:09:04;;;;;;;44.00;23.10;;;;;;;;;;4933686;29;20293;-83
2020/12/17 04:11:30;;;;;;;43.20;22.05;;;;;;;;;;4945954;29;20283;-83
2020/12/17 04:13:57;;;;;;;39.63;21.40;;;;;;;;;;4936843;29;20043;-83
2020/12/17 04:16:23;;;;;;;41.42;22.83;;;;;;;;;;4949390;29;20060;-83
2020/12/17 04:18:50;;;;;;;39.67;22.25;;;;;;;;;;4935292;29;20514;-83
2020/12/17 04:21:16;;;;;;;41.88;22.25;;;;;;;;;;4923100;29;20047;-83
2020/12/17 04:23:43;;;;;;;32.97;20.85;;;;;;;;;;4936097;29;20078;-83
2020/12/17 04:26:15;;;;;;;41.70;22.58;;;;;;;;;;4956007;29;20051;-84
2020/12/17 04:28:42;;;;;;;40.15;23.48;;;;;;;;;;4953730;29;20055;-83
2020/12/17 04:31:08;;;;;;;37.75;22.15;;;;;;;;;;4943289;29;20040;-82
2020/12/17 04:33:34;;;;;;;41.25;23.60;;;;;;;;;;4944064;29;20116;-82
2020/12/17 04:36:02;;;;;;;46.42;22.77;;;;;;;;;;4945432;29;20043;-83
2020/12/17 04:38:31;;;;;;;38.20;21.58;;;;;;;;;;4942550;29;20067;-83
2020/12/17 04:41:01;;;;;;;39.47;23.15;;;;;;;;;;4943682;29;20085;-83
2020/12/17 04:43:28;;;;;;;39.60;22.55;;;;;;;;;;4945289;29;20111;-83
2020/12/17 04:45:55;;;;;;;38.50;22.08;;;;;;;;;;4958727;28;20055;-83
2020/12/17 04:48:24;;;;;;;43.70;22.90;;;;;;;;;;4944960;29;20039;-83
2020/12/17 04:50:51;;;;;;;48.33;24.63;;;;;;;;;;4941462;29;20107;-83
2020/12/17 04:53:17;;;;;;;42.72;23.20;;;;;;;;;;4951037;29;20170;-83
2020/12/17 04:55:47;;;;;;;38.35;21.05;;;;;;;;;;4937228;29;20075;-83
2020/12/17 04:58:18;;;;;;;40.47;22.83;;;;;;;;;;4947851;29;20066;-83
2020/12/17 05:00:50;;;;;;;41.28;23.88;;;;;;;;;;4945258;29;20368;-83
2020/12/17 05:03:17;;;;;;;42.33;22.80;;;;;;;;;;4929402;29;20039;-83
2020/12/17 05:05:44;;;;;;;40.10;23.23;;;;;;;;;;4929792;29;20123;-83
2020/12/17 05:08:10;;;;;;;38.50;22.08;;;;;;;;;;4947970;29;20060;-83
2020/12/17 05:10:36;;;;;;;41.83;23.17;;;;;;;;;;4927655;29;20216;-83
2020/12/17 05:13:02;;;;;;;41.17;22.65;;;;;;;;;;4931086;29;20162;-83
2020/12/17 05:15:29;;;;;;;42.80;22.52;;;;;;;;;;4938636;29;20051;-83
2020/12/17 05:18:02;;;;;;;43.63;23.20;;;;;;;;;;4943416;28;20035;-83
2020/12/17 05:20:29;;;;;;;42.50;23.05;;;;;;;;;;4947092;28;20032;-82
2020/12/17 05:23:00;;;;;;;45.72;23.52;;;;;;;;;;4945615;29;20165;-84
2020/12/17 05:25:27;;;;;;;40.28;23.33;;;;;;;;;;4938466;29;20684;-84
2020/12/17 05:28:03;;;;;;;45.78;25.33;;;;;;;;;;4954731;29;20070;-84
2020/12/17 05:30:33;;;;;;;43.65;23.20;;;;;;;;;;4933833;29;20059;-85
2020/12/17 05:33:06;;;;;;;46.40;23.48;;;;;;;;;;4952502;29;20055;-85
2020/12/17 05:35:36;;;;;;;39.65;22.70;;;;;;;;;;4952549;29;20058;-84
2020/12/17 05:38:10;;;;;;;43.35;22.85;;;;;;;;;;4935317;29;20062;-86
2020/12/17 05:41:09;;;;;;;;;;;;;;;;;;;;;
2020/12/17 05:43:55;;;;;;;40.53;24.17;;;;;;;;;;4943561;29;20052;-85
2020/12/17 05:46:44;;;;;;;44.70;23.67;;;;;;;;;;4937309;29;20411;-86
2020/12/17 05:49:29;;;;;;;39.60;23.17;;;;;;;;;;4960406;28;20031;-85
2020/12/17 05:52:16;;;;;;;42.45;23.63;;;;;;;;;;4962117;28;20058;-85
2020/12/17 05:54:50;;;;;;;41.17;23.15;;;;;;;;;;4948609;29;20169;-86
2020/12/17 05:57:17;;;;;;;43.92;24.45;;;;;;;;;;4943880;29;20053;-85
2020/12/17 06:00:03;;;;;;;38.35;21.65;;;;;;;;;;4948526;29;20069;-86
2020/12/17 06:02:30;;;;;;;44.50;24.73;;;;;;;;;;4958140;28;20071;-84
2020/12/17 06:05:06;;;;;;;42.38;22.83;;;;;;;;;;4947535;28;20114;-88
2020/12/17 06:07:33;;;;;;;41.80;23.38;;;;;;;;;;4933141;29;20055;-88
2020/12/17 06:10:16;;;;;;;43.72;24.15;;;;;;;;;;4935311;29;20089;-89
2020/12/17 06:12:44;;;;;;;42.97;25.23;;;;;;;;;;4963863;29;20062;-89
2020/12/17 06:15:17;;;;;;;44.28;23.90;;;;;;;;;;4924887;29;20116;-88
2020/12/17 06:17:49;;;;;;;53.08;24.10;;;;;;;;;;4938114;29;20123;-89
2020/12/17 06:20:17;;;;;;;53.42;25.10;;;;;;;;;;4937754;29;20119;-88
2020/12/17 06:22:56;;;;;;;49.20;25.40;;;;;;;;;;4927426;29;20047;-88
2020/12/17 06:25:32;;;;;;;49.25;24.63;;;;;;;;;;4938724;29;20400;-88
2020/12/17 06:27:59;;;;;;;46.20;25.42;;;;;;;;;;4915910;29;20063;-88
2020/12/17 06:30:30;;;;;;;51.58;26.70;;;;;;;;;;4957613;29;20086;-87
2020/12/17 06:32:57;;;;;;;48.95;25.33;;;;;;;;;;4930083;29;20110;-87
2020/12/17 06:35:47;;;;;;;47.35;25.08;;;;;;;;;;4928952;29;20372;-87
2020/12/17 06:38:16;;;;;;;49.70;25.33;;;;;;;;;;4943440;29;20051;-86
2020/12/17 06:40:53;;;;;;;46.33;23.45;;;;;;;;;;4946525;29;20058;-86
2020/12/17 06:43:30;;;;;;;44.67;24.73;;;;;;;;;;4932533;29;20368;-86
2020/12/17 06:46:00;;;;;;;51.22;24.67;;;;;;;;;;4953356;29;20051;-86
2020/12/17 06:48:34;;;;;;;47.70;24.17;;;;;;;;;;4958918;29;20807;-86
2020/12/17 06:51:23;;;;;;;43.63;23.42;;;;;;;;;;4960120;29;20347;-86
2020/12/17 06:54:20;;;;;;;45.58;24.42;;;;;;;;;;4930761;29;20059;-85
2020/12/17 06:57:48;;;;;;;46.53;24.20;;;;;;;;;;4887176;29;20064;-85
2020/12/17 07:11:43;;;;;;;45.45;24.02;;;;;;;;;;4892606;29;20095;-85
2020/12/17 07:17:50;;;;;;;44.05;23.40;;;;;;;;;;4886409;29;20063;-84
2020/12/17 07:20:36;;;;;;;;;;;;;;;;;;4892650;29;20070;-85
2020/12/17 07:23:06;;;;;;;42.78;21.63;;;;;;;;;;4897666;29;20356;-85
2020/12/17 07:25:33;;;;;;;41.05;22.95;;;;;;;;;;4877133;29;20088;-85
2020/12/17 07:27:59;;;;;;;42.97;22.15;;;;;;;;;;4926089;29;20065;-84
2020/12/17 07:30:29;;;;;;;40.47;22.08;;;;;;;;;;4949442;29;20136;-84
2020/12/17 07:33:03;;;;;;;49.03;23.35;;;;;;;;;;4942882;29;20047;-84
2020/12/17 07:35:31;;;;;;;40.53;21.90;;;;;;;;;;4934107;29;20535;-84
2020/12/17 07:37:58;;;;;;;39.13;21.50;;;;;;;;;;4938498;29;20055;-83
2020/12/17 07:40:29;;;;;;;35.83;21.90;;;;;;;;;;4950935;29;20052;-83
2020/12/17 07:43:13;;;;;;;37.20;20.60;;;;;;;;;;4936290;29;20054;-83
2020/12/17 07:45:40;;;;;;;35.47;20.92;;;;;;;;;;4947126;29;20055;-84
2020/12/17 07:48:34;;;;;;;33.45;20.70;;;;;;;;;;4939852;29;20053;-85
2020/12/17 07:51:04;;;;;;;38.40;20.63;;;;;;;;;;4939279;29;20147;-84
2020/12/17 07:53:32;;;;;;;37.42;22.13;;;;;;;;;;4946229;29;20079;-85
2020/12/17 07:56:00;;;;;;;40.45;21.42;;;;;;;;;;4955207;29;20051;-84
2020/12/17 07:58:26;;;;;;;35.30;19.08;;;;;;;;;;4952760;29;20067;-83
2020/12/17 08:00:56;;;;;;;35.03;19.65;;;;;;;;;;4949685;29;20111;-84
2020/12/17 08:03:25;;;;;;;33.60;19.00;;;;;;;;;;4951734;29;20047;-84
2020/12/17 08:05:52;;;;;;;31.17;18.30;;;;;;;;;;4930731;29;20363;-84
2020/12/17 08:08:19;;;;;;;30.88;18.05;;;;;;;;;;4924771;29;20052;-84
2020/12/17 08:10:45;;;;;;;32.60;18.38;;;;;;;;;;4938704;29;20086;-85
2020/12/17 08:13:16;;;;;;;32.78;16.30;;;;;;;;;;4943422;29;20083;-85
2020/12/17 08:15:42;;;;;;;33.67;18.20;;;;;;;;;;4944030;29;20079;-86
2020/12/17 08:18:10;;;;;;;31.80;18.45;;;;;;;;;;4926688;29;20119;-86
2020/12/17 08:20:40;;;;;;;27.88;17.10;;;;;;;;;;4937590;29;20040;-86
2020/12/17 08:23:20;;;;;;;34.30;16.95;;;;;;;;;;4955678;28;20052;-84
2020/12/17 08:25:46;;;;;;;29.70;17.27;;;;;;;;;;4931668;29;20324;-86
2020/12/17 08:28:14;;;;;;;29.92;17.02;;;;;;;;;;4929451;29;20116;-86
2020/12/17 08:31:00;;;;;;;32.03;17.50;;;;;;;;;;4934749;29;20364;-86
2020/12/17 08:33:31;;;;;;;30.48;16.15;;;;;;;;;;4914467;29;20107;-85
2020/12/17 08:36:12;;;;;;;32.50;16.80;;;;;;;;;;4941211;29;20111;-86
2020/12/17 08:38:54;;;;;;;32.40;17.15;;;;;;;;;;4920923;29;20052;-87
2020/12/17 08:42:05;;;;;;;27.98;16.88;;;;;;;;;;4942113;29;20257;-88
2020/12/17 08:45:01;;;;;;;29.30;15.82;;;;;;;;;;4920715;29;20055;-88
2020/12/17 08:47:37;;;;;;;33.15;16.10;;;;;;;;;;4938254;29;20055;-88
2020/12/17 08:50:10;;;;;;;26.17;16.13;;;;;;;;;;4944747;29;20066;-89
2020/12/17 08:52:36;;;;;;;28.90;16.65;;;;;;;;;;4935536;29;20051;-86
2020/12/17 08:55:04;;;;;;;32.20;16.92;;;;;;;;;;4919210;29;20043;-87
2020/12/17 08:57:31;;;;;;;31.13;17.77;;;;;;;;;;4929023;29;20120;-87
2020/12/17 08:59:58;;;;;;;33.70;17.40;;;;;;;;;;4931656;29;20047;-87
2020/12/17 09:02:28;;;;;;;32.08;16.65;;;;;;;;;;4913733;29;20048;-88
2020/12/17 09:05:03;;;;;;;30.05;17.10;;;;;;;;;;4915907;29;20071;-89
2020/12/17 09:07:36;;;;;;;28.40;16.90;;;;;;;;;;4902045;29;20059;-89
2020/12/17 09:10:14;;;;;;;29.60;16.48;;;;;;;;;;4932644;29;20083;-89
2020/12/17 09:12:42;;;;;;;29.75;17.20;;;;;;;;;;4928453;29;20169;-89
2020/12/17 09:15:15;;;;;;;34.65;17.75;;;;;;;;;;4940175;29;20163;-87
2020/12/17 09:17:54;;;;;;;31.88;17.58;;;;;;;;;;4923694;28;20039;-87
2020/12/17 09:20:23;;;;;;;26.33;16.10;;;;;;;;;;4910076;28;20048;-87
2020/12/17 09:23:07;;;;;;;30.75;17.23;;;;;;;;;;4925189;29;20085;-87
2020/12/17 09:26:25;;;;;;;27.70;16.17;;;;;;;;;;4926626;29;20071;-88
2020/12/17 09:29:24;;;;;;;;;;;;;;;;;;;;;
2020/12/17 09:32:26;;;;;;;26.75;16.20;;;;;;;;;;4944651;28;20113;-89
2020/12/17 09:35:12;;;;;;;25.90;15.35;;;;;;;;;;4919573;29;20047;-90
2020/12/17 09:37:40;;;;;;;29.27;16.25;;;;;;;;;;4930271;29;20047;-90
2020/12/17 09:40:10;;;;;;;26.58;15.73;;;;;;;;;;4914701;29;20059;-89
2020/12/17 09:42:37;;;;;;;29.27;16.88;;;;;;;;;;4909016;29;20054;-89
2020/12/17 09:45:19;;;;;;;29.42;16.10;;;;;;;;;;4923208;29;20151;-90
2020/12/17 09:47:45;;;;;;;23.33;15.15;;;;;;;;;;4934678;29;20115;-84
2020/12/17 09:50:15;;;;;;;26.40;15.05;;;;;;;;;;4932741;29;20103;-87
2020/12/17 09:52:43;;;;;;;24.63;14.82;;;;;;;;;;4934980;29;20080;-87
2020/12/17 09:55:17;;;;;;;22.10;14.50;;;;;;;;;;4931826;29;20054;-87
2020/12/17 09:57:47;;;;;;;26.25;15.02;;;;;;;;;;4928551;29;20082;-85
2020/12/17 10:00:15;;;;;;;22.30;14.65;;;;;;;;;;4919480;29;20075;-84
2020/12/17 10:03:06;;;;;;;20.15;14.10;;;;;;;;;;4932357;29;20059;-85
2020/12/17 10:05:34;;;;;;;24.05;13.52;;;;;;;;;;4945470;29;20059;-84
2020/12/17 10:08:02;;;;;;;20.08;12.82;;;;;;;;;;4922857;29;20051;-85
2020/12/17 10:10:34;;;;;;;20.08;13.20;;;;;;;;;;4931687;29;20087;-85
2020/12/17 10:13:06;;;;;;;17.45;12.38;;;;;;;;;;4906764;29;20323;-85
2020/12/17 10:18:46;;;;;;;18.10;12.73;;;;;;;;;;4926184;29;20071;-86
2020/12/17 10:21:13;;;;;;;21.92;14.00;;;;;;;;;;4905842;29;20068;-85
2020/12/17 10:23:39;;;;;;;23.85;13.20;;;;;;;;;;4911897;29;20409;-85
2020/12/17 10:26:14;;;;;;;19.42;13.02;;;;;;;;;;4908224;29;20415;-85
2020/12/17 10:28:42;;;;;;;19.25;13.18;;;;;;;;;;4917829;29;20548;-85
2020/12/17 10:31:09;;;;;;;17.20;12.70;;;;;;;;;;4913992;29;20052;-84
2020/12/17 10:33:39;;;;;;;21.05;13.85;;;;;;;;;;4912608;29;20048;-84
2020/12/17 10:36:05;;;;;;;19.70;12.23;;;;;;;;;;4925017;29;20051;-85
2020/12/17 10:38:31;;;;;;;20.73;14.13;;;;;;;;;;4928073;29;20055;-85
2020/12/17 10:41:03;;;;;;;19.48;13.63;;;;;;;;;;4930309;29;20056;-84
2020/12/17 10:43:30;;;;;;;20.63;12.90;;;;;;;;;;4924876;29;20048;-85
2020/12/17 10:45:58;;;;;;;19.20;12.80;;;;;;;;;;4942708;29;20068;-86
2020/12/17 10:48:25;;;;;;;18.23;13.05;;;;;;;;;;4940856;29;20056;-85
2020/12/17 10:50:56;;;;;;;16.67;12.60;;;;;;;;;;4946069;29;20119;-85
2020/12/17 10:53:24;;;;;;;19.05;11.75;;;;;;;;;;4925451;29;20054;-84
2020/12/17 10:55:59;;;;;;;13.15;10.70;;;;;;;;;;4946216;29;20051;-85
2020/12/17 10:58:28;;;;;;;15.48;11.60;;;;;;;;;;4927569;29;20102;-86
2020/12/17 11:00:58;;;;;;;14.43;9.90;;;;;;;;;;4932245;29;20044;-84
2020/12/17 11:03:28;;;;;;;11.32;9.65;;;;;;;;;;4934750;29;20043;-85
2020/12/17 11:06:13;;;;;;;9.60;8.23;;;;;;;;;;4948806;29;20417;-85
2020/12/17 11:08:43;;;;;;;11.80;7.97;;;;;;;;;;4948605;29;20052;-85
2020/12/17 11:11:12;;;;;;;10.30;7.65;;;;;;;;;;4931646;29;20054;-85
2020/12/17 11:13:41;;;;;;;10.73;7.43;;;;;;;;;;4932327;29;20062;-86
2020/12/17 11:23:11;;;;;;;8.98;6.70;;;;;;;;;;4957692;29;20051;-83
2020/12/17 11:25:39;;;;;;;11.25;7.22;;;;;;;;;;4958255;28;20031;-84
2020/12/17 11:28:12;;;;;;;8.68;7.05;;;;;;;;;;4942320;29;20050;-83
2020/12/17 11:30:43;;;;;;;11.93;6.72;;;;;;;;;;4942389;28;20059;-84
2020/12/17 11:33:10;;;;;;;8.52;6.63;;;;;;;;;;4957542;28;20095;-84
2020/12/17 11:35:52;;;;;;;9.15;6.80;;;;;;;;;;4942413;29;20047;-83
2020/12/17 11:38:19;;;;;;;7.97;6.20;;;;;;;;;;4930390;29;20063;-83
2020/12/17 11:40:48;;;;;;;8.25;6.45;;;;;;;;;;4956242;28;20069;-83
2020/12/17 11:43:38;;;;;;;9.23;7.30;;;;;;;;;;4951832;28;20112;-83
2020/12/17 11:46:04;;;;;;;11.20;7.05;;;;;;;;;;4939992;29;20059;-84
2020/12/17 11:48:30;;;;;;;7.47;6.47;;;;;;;;;;4954859;29;20109;-83
2020/12/17 11:50:57;;;;;;;9.60;6.45;;;;;;;;;;4940696;29;20086;-83
2020/12/17 11:53:30;;;;;;;7.47;5.88;;;;;;;;;;4953985;29;20095;-82
2020/12/17 11:55:58;;;;;;;9.77;6.07;;;;;;;;;;4939455;29;20040;-84
2020/12/17 11:58:27;;;;;;;9.05;5.55;;;;;;;;;;4951148;29;20151;-83
2020/12/17 12:00:56;;;;;;;10.25;5.85;;;;;;;;;;4930420;29;20674;-83
2020/12/17 12:03:23;;;;;;;7.90;5.40;;;;;;;;;;4943725;29;20108;-82
2020/12/17 12:05:53;;;;;;;6.47;4.75;;;;;;;;;;4927391;29;20051;-82
2020/12/17 12:08:23;;;;;;;6.85;5.93;;;;;;;;;;4941599;29;20054;-83
2020/12/17 12:10:50;;;;;;;9.25;6.47;;;;;;;;;;4943612;29;20479;-85
2020/12/17 12:13:16;;;;;;;7.63;6.68;;;;;;;;;;4942876;29;20069;-83
2020/12/17 12:15:48;;;;;;;6.63;5.93;;;;;;;;;;4926261;29;20055;-84
2020/12/17 12:18:15;;;;;;;7.28;6.13;;;;;;;;;;4940696;29;20054;-84
2020/12/17 12:20:43;;;;;;;7.50;6.20;;;;;;;;;;4939449;29;20070;-83
2020/12/17 12:23:09;;;;;;;7.70;6.90;;;;;;;;;;4923511;29;20070;-82
2020/12/17 12:25:39;;;;;;;7.53;6.35;;;;;;;;;;4937517;29;20044;-83
2020/12/17 12:28:05;;;;;;;9.07;6.50;;;;;;;;;;4923627;29;20063;-82
2020/12/17 12:30:31;;;;;;;7.32;6.45;;;;;;;;;;4939467;29;20156;-84
2020/12/17 12:33:01;;;;;;;8.57;6.75;;;;;;;;;;4939786;29;20081;-84
2020/12/17 12:35:27;;;;;;;9.73;6.40;;;;;;;;;;4927495;29;20044;-83
2020/12/17 12:37:54;;;;;;;9.68;6.88;;;;;;;;;;4943287;29;20059;-84
2020/12/17 12:40:55;;;;;;;8.20;6.60;;;;;;;;;;4947618;29;20146;-82
2020/12/17 12:43:24;;;;;;;12.10;8.07;;;;;;;;;;4939808;29;20066;-84
2020/12/17 12:45:54;;;;;;;11.02;8.15;;;;;;;;;;4941085;28;20058;-83
2020/12/17 12:48:22;;;;;;;9.23;7.60;;;;;;;;;;4948271;28;20078;-82
2020/12/17 12:50:58;;;;;;;10.77;8.82;;;;;;;;;;4943547;29;20135;-83
2020/12/17 12:53:30;;;;;;;9.77;8.18;;;;;;;;;;4928009;29;20051;-84
2020/12/17 12:55:58;;;;;;;11.52;8.90;;;;;;;;;;4938768;29;20036;-83
2020/12/17 12:58:30;;;;;;;10.48;8.77;;;;;;;;;;4950471;28;20052;-84
2020/12/17 13:00:56;;;;;;;14.52;10.95;;;;;;;;;;4943422;29;20072;-84
2020/12/17 13:03:23;;;;;;;14.48;9.88;;;;;;;;;;4922821;29;20051;-83
2020/12/17 13:05:57;;;;;;;11.20;9.43;;;;;;;;;;4925137;29;20146;-84
2020/12/17 13:08:29;;;;;;;11.73;9.63;;;;;;;;;;4948514;29;20661;-83
2020/12/17 13:10:55;;;;;;;11.93;9.38;;;;;;;;;;4947752;29;20051;-83
2020/12/17 13:13:32;;;;;;;14.43;10.55;;;;;;;;;;4953037;29;20103;-84
2020/12/17 13:15:58;;;;;;;12.48;9.77;;;;;;;;;;4946648;29;20101;-84
2020/12/17 13:18:24;;;;;;;14.60;10.70;;;;;;;;;;4941691;29;20058;-84
2020/12/17 13:20:57;;;;;;;12.32;10.40;;;;;;;;;;4952161;29;20051;-84
2020/12/17 13:23:23;;;;;;;12.95;9.95;;;;;;;;;;4943991;29;20055;-83
2020/12/17 13:25:50;;;;;;;16.00;10.30;;;;;;;;;;4945407;29;20487;-83
2020/12/17 13:28:16;;;;;;;12.35;10.02;;;;;;;;;;4952644;29;20047;-83
2020/12/17 13:30:46;;;;;;;14.02;10.02;;;;;;;;;;4940720;29;20047;-83
2020/12/17 13:33:12;;;;;;;14.52;10.13;;;;;;;;;;4928587;29;20150;-82
2020/12/17 13:35:39;;;;;;;15.40;10.27;;;;;;;;;;4957709;29;20051;-84
2020/12/17 13:38:05;;;;;;;13.43;9.95;;;;;;;;;;4950229;29;20048;-84
2020/12/17 13:40:32;;;;;;;11.50;9.40;;;;;;;;;;4950259;29;20573;-84
2020/12/17 13:42:58;;;;;;;13.38;10.73;;;;;;;;;;4926578;29;20109;-84
2020/12/17 13:45:24;;;;;;;14.20;10.15;;;;;;;;;;4949766;29;20047;-84
2020/12/17 13:47:50;;;;;;;14.13;9.93;;;;;;;;;;4947396;29;20155;-83
2020/12/17 13:50:18;;;;;;;14.50;9.88;;;;;;;;;;4945944;29;20082;-83
2020/12/17 13:52:49;;;;;;;15.40;9.10;;;;;;;;;;4945341;29;20055;-83
2020/12/17 13:55:19;;;;;;;12.68;9.52;;;;;;;;;;4945991;29;20051;-83
2020/12/17 13:57:46;;;;;;;12.18;8.48;;;;;;;;;;4924310;29;20050;-83
2020/12/17 14:00:15;;;;;;;14.15;9.07;;;;;;;;;;4929606;29;20051;-83
2020/12/17 14:02:42;;;;;;;12.07;9.38;;;;;;;;;;4946879;29;20071;-83
2020/12/17 14:05:10;;;;;;;15.32;9.07;;;;;;;;;;4932213;29;20383;-84
2020/12/17 14:07:36;;;;;;;10.57;8.00;;;;;;;;;;4930104;29;20404;-83
2020/12/17 14:10:02;;;;;;;16.20;8.60;;;;;;;;;;4945757;29;20609;-84
2020/12/17 14:12:41;;;;;;;14.07;7.68;;;;;;;;;;4950545;29;20098;-82
2020/12/17 14:15:09;;;;;;;10.43;6.85;;;;;;;;;;4952036;29;20047;-84
2020/12/17 14:17:35;;;;;;;10.52;6.97;;;;;;;;;;4936664;29;20315;-84
2020/12/17 14:20:03;;;;;;;9.18;6.32;;;;;;;;;;4930650;29;20400;-83
2020/12/17 14:22:30;;;;;;;9.10;6.70;;;;;;;;;;4928411;29;20058;-83
2020/12/17 14:24:57;;;;;;;10.75;6.65;;;;;;;;;;4945746;29;20086;-83
2020/12/17 14:27:24;;;;;;;12.10;6.10;;;;;;;;;;4935418;29;20039;-83
2020/12/17 14:30:00;;;;;;;9.90;5.95;;;;;;;;;;4930239;29;20319;-84
2020/12/17 14:32:26;;;;;;;8.68;6.07;;;;;;;;;;4945431;29;20058;-84
2020/12/17 14:34:53;;;;;;;14.25;6.85;;;;;;;;;;4926919;29;20051;-83
2020/12/17 14:37:19;;;;;;;11.32;7.45;;;;;;;;;;4944750;29;20951;-84
2020/12/17 14:39:45;;;;;;;13.23;6.30;;;;;;;;;;4934337;29;20076;-84
2020/12/17 14:42:12;;;;;;;11.80;6.00;;;;;;;;;;4936252;29;20044;-84
2020/12/17 14:44:48;;;;;;;10.05;5.95;;;;;;;;;;4937213;29;20076;-84
2020/12/17 14:47:17;;;;;;;11.00;6.20;;;;;;;;;;4933122;29;20336;-84
2020/12/17 14:49:43;;;;;;;11.30;6.15;;;;;;;;;;4920136;29;20051;-83
2020/12/17 14:52:13;;;;;;;9.95;6.63;;;;;;;;;;4933559;29;20183;-83
2020/12/17 14:54:39;;;;;;;8.45;6.78;;;;;;;;;;4935998;29;20100;-82
2020/12/17 14:57:06;;;;;;;14.85;6.55;;;;;;;;;;4937579;29;20083;-84
2020/12/17 14:59:38;;;;;;;12.13;6.32;;;;;;;;;;4935484;29;20098;-83
2020/12/17 15:02:05;;;;;;;9.82;6.50;;;;;;;;;;4934893;29;20138;-84
2020/12/17 15:04:36;;;;;;;15.57;6.97;;;;;;;;;;4933108;29;20071;-83
2020/12/17 15:07:13;;;;;;;11.98;7.00;;;;;;;;;;4936962;29;20225;-84